Time;durP1;ratioP1;P1;durP2;ratioP2;P2;SDS_P1;SDS_P2;PMS_P1;PMS_P2;Temp;Humidity;BMP_temperature;BMP_pressure;BME280_temperature;BME280_humidity;BME280_pressure;Samples;Min_cycle;Max_cycle;Signal;HPM_P1;HPM_P2
2023/08/02 00:02:10;;;;;;;39.07;2.93;;;;;;;24.87;60.21;98236.03;7312484;19;129280;-43
2023/08/02 00:04:36;;;;;;;53.17;3.73;;;;;;;24.77;59.90;98217.16;7313622;19;129285;-31
2023/08/02 00:07:02;;;;;;;101.13;6.87;;;;;;;24.86;59.85;98231.78;7307791;19;129988;-46
2023/08/02 00:09:27;;;;;;;90.63;6.13;;;;;;;24.88;60.04;98232.38;7299910;19;131017;-36
2023/08/02 00:11:53;;;;;;;34.87;2.63;;;;;;;24.87;59.99;98233.41;7312225;19;129351;-38
2023/08/02 00:14:18;;;;;;;74.87;4.87;;;;;;;24.88;60.38;98237.63;7313571;19;129164;-41
2023/08/02 00:16:43;;;;;;;94.50;6.80;;;;;;;24.80;60.29;98227.28;7303365;19;129442;-38
2023/08/02 00:19:09;;;;;;;81.10;5.93;;;;;;;24.86;60.28;98240.47;7299149;19;131210;-39
2023/08/02 00:21:34;;;;;;;44.00;3.13;;;;;;;24.88;59.94;98241.09;7309418;19;129755;-39
2023/08/02 00:23:59;;;;;;;63.70;4.17;;;;;;;24.88;60.31;98245.53;7313220;19;130036;-41
2023/08/02 00:26:25;;;;;;;42.03;2.97;;;;;;;24.88;59.94;98248.16;7315154;19;129280;-39
2023/08/02 00:28:50;;;;;;;22.40;2.17;;;;;;;24.87;60.62;98263.13;7313784;19;129616;-38
2023/08/02 00:31:15;;;;;;;47.23;3.23;;;;;;;24.85;60.32;98256.44;7310881;19;128983;-40
2023/08/02 00:33:41;;;;;;;77.63;5.10;;;;;;;24.83;60.23;98250.56;7314011;19;130441;-37
2023/08/02 00:36:07;;;;;;;41.37;2.97;;;;;;;24.83;60.02;98261.06;7314862;19;128822;-41
2023/08/02 00:38:32;;;;;;;74.03;5.37;;;;;;;24.85;60.24;98259.88;7313359;19;129688;-41
2023/08/02 00:41:02;;;;;;;37.83;2.87;;;;;;;24.86;61.18;98255.44;7312441;19;130054;-39
2023/08/02 00:43:27;;;;;;;51.55;3.65;;;;;;;24.85;60.63;98253.81;7313030;19;129224;-40
2023/08/02 00:45:53;;;;;;;15.77;1.53;;;;;;;24.85;60.01;98257.25;7314949;19;128832;-38
2023/08/02 00:48:18;;;;;;;44.70;3.50;;;;;;;24.86;60.62;98260.72;7310918;19;129384;-41
2023/08/02 00:50:44;;;;;;;60.50;3.87;;;;;;;24.87;60.10;98262.31;7311102;19;129053;-41
2023/08/02 00:53:09;;;;;;;54.87;3.73;;;;;;;24.85;59.96;98259.06;7312923;19;129209;-42
2023/08/02 00:55:35;;;;;;;52.87;3.43;;;;;;;24.79;60.08;98251.97;7312555;19;129409;-40
2023/08/02 00:58:00;;;;;;;33.03;2.40;;;;;;;24.85;60.37;98259.88;7312360;19;129540;-42
2023/08/02 01:00:25;;;;;;;60.27;4.03;;;;;;;24.87;59.99;98257.88;7309471;19;129192;-36
2023/08/02 01:02:51;;;;;;;46.63;3.13;;;;;;;24.86;59.96;98255.44;7314558;19;129806;-37
2023/08/02 01:05:21;;;;;;;41.00;2.83;;;;;;;24.86;60.81;98255.44;7311304;19;128802;-38
2023/08/02 01:07:52;;;;;;;71.30;4.72;;;;;;;24.86;61.19;98250.19;7312613;19;130159;-34
2023/08/02 01:10:34;;;;;;;109.30;7.22;;;;;;;24.76;60.78;98229.47;7296291;19;130986;-44
2023/08/02 01:13:05;;;;;;;101.15;6.78;;;;;;;24.76;60.72;98228.69;7297027;19;129368;-42
2023/08/02 01:15:33;;;;;;;39.47;2.67;;;;;;;24.85;60.47;98245.91;7310682;19;130091;-36
2023/08/02 01:17:59;;;;;;;40.67;2.67;;;;;;;24.86;60.15;98250.97;7310991;19;129429;-41
2023/08/02 01:20:24;;;;;;;61.47;4.10;;;;;;;24.85;60.58;98243.28;7306175;19;129154;-37
2023/08/02 01:22:50;;;;;;;64.40;4.07;;;;;;;24.88;60.36;98248.16;7312623;19;129510;-35
2023/08/02 01:25:15;;;;;;;47.37;3.37;;;;;;;24.88;60.19;98248.97;7310600;19;129441;-45
2023/08/02 01:27:56;;;;;;;40.73;3.10;;;;;;;24.89;61.35;98249.78;7310980;19;129566;-39
2023/08/02 01:30:23;;;;;;;84.88;5.50;;;;;;;24.87;60.11;98251.81;7308910;19;130153;-34
2023/08/02 01:32:49;;;;;;;49.28;3.42;;;;;;;24.82;60.71;98246.31;7313073;19;131149;-38
2023/08/02 01:35:15;;;;;;;70.87;4.53;;;;;;;24.84;60.40;98236.41;7311975;19;128812;-39
2023/08/02 01:37:42;;;;;;;34.33;2.60;;;;;;;24.86;60.12;98250.19;7313358;19;129213;-35
2023/08/02 01:40:09;;;;;;;58.80;4.07;;;;;;;24.85;60.54;98245.91;7307232;19;129675;-41
2023/08/02 01:42:34;;;;;;;36.53;2.78;;;;;;;24.85;60.82;98241.47;7309132;19;131044;-35
2023/08/02 01:44:59;;;;;;;60.40;3.73;;;;;;;24.86;60.17;98248.34;7310459;19;129029;-38
2023/08/02 01:47:25;;;;;;;42.03;3.00;;;;;;;24.85;60.79;98248.53;7311686;19;129836;-33
2023/08/02 01:49:50;;;;;;;45.17;3.10;;;;;;;24.84;60.07;98239.06;7310788;19;129211;-33
2023/08/02 01:52:15;;;;;;;34.63;2.50;;;;;;;24.86;60.40;98242.31;7305180;19;130972;-35
2023/08/02 01:54:41;;;;;;;95.33;5.97;;;;;;;24.85;60.23;98240.66;7310517;19;128932;-39
2023/08/02 01:57:06;;;;;;;50.73;3.37;;;;;;;24.85;60.79;98245.91;7312699;19;129394;-35
2023/08/02 01:59:31;;;;;;;107.57;6.83;;;;;;;24.85;60.24;98248.53;7309340;19;129244;-41
2023/08/02 02:01:57;;;;;;;36.53;2.60;;;;;;;24.86;60.64;98253.63;7306965;19;130282;-31
2023/08/02 02:04:23;;;;;;;48.90;3.30;;;;;;;24.86;60.22;98250.97;7309500;19;129584;-34
2023/08/02 02:06:49;;;;;;;33.53;2.45;;;;;;;24.85;60.46;98253.81;7312753;19;129304;-33
2023/08/02 02:09:15;;;;;;;47.30;3.20;;;;;;;24.85;60.23;98248.53;7308681;19;130127;-35
2023/08/02 02:11:40;;;;;;;46.20;3.20;;;;;;;24.84;60.02;98239.84;7308435;19;129163;-38
2023/08/02 02:14:05;;;;;;;58.97;3.77;;;;;;;24.84;60.02;98244.31;7310112;19;130156;-38
2023/08/02 02:16:31;;;;;;;52.63;3.50;;;;;;;24.85;60.22;98248.53;7310923;19;128906;-34
2023/08/02 02:18:56;;;;;;;35.77;2.53;;;;;;;24.85;60.64;98241.47;7309912;19;129288;-38
2023/08/02 02:21:21;;;;;;;74.70;4.57;;;;;;;24.85;60.03;98243.28;7308016;19;129637;-34
2023/08/02 02:23:47;;;;;;;64.20;4.27;;;;;;;24.85;60.13;98238.03;7310418;19;130388;-42
2023/08/02 02:26:12;;;;;;;48.20;3.37;;;;;;;24.84;60.18;98239.84;7309459;19;128916;-40
2023/08/02 02:28:37;;;;;;;64.30;4.50;;;;;;;24.85;60.58;98243.28;7307595;19;129965;-37
2023/08/02 02:31:03;;;;;;;55.93;3.60;;;;;;;24.85;60.70;98236.22;7307702;19;129473;-38
2023/08/02 02:33:28;;;;;;;43.60;3.00;;;;;;;24.85;60.11;98232.78;7313064;19;130020;-33
2023/08/02 02:35:53;;;;;;;37.53;2.63;;;;;;;24.85;59.93;98240.66;7311015;19;128995;-34
2023/08/02 02:38:19;;;;;;;48.40;3.27;;;;;;;24.82;60.42;98233.97;7309361;19;130250;-38
2023/08/02 02:40:44;;;;;;;39.10;2.90;;;;;;;24.74;60.21;98214.91;7308197;19;129556;-39
2023/08/02 02:43:09;;;;;;;49.77;3.27;;;;;;;24.85;60.05;98230.16;7312139;19;129943;-31
2023/08/02 02:45:35;;;;;;;45.37;3.13;;;;;;;24.84;60.47;98225.91;7308020;19;129142;-40
2023/08/02 02:48:00;;;;;;;77.27;4.97;;;;;;;24.82;60.31;98212.97;7309566;19;130211;-40
2023/08/02 02:50:25;;;;;;;46.67;3.37;;;;;;;24.74;60.60;98204.41;7306889;19;129595;-42
2023/08/02 02:52:51;;;;;;;50.67;3.30;;;;;;;24.84;60.82;98223.28;7305086;19;129374;-35
2023/08/02 02:55:16;;;;;;;40.00;2.70;;;;;;;24.84;60.38;98220.66;7311315;19;129459;-36
2023/08/02 02:57:42;;;;;;;61.60;3.87;;;;;;;24.83;60.15;98219.00;7310442;19;129439;-33
2023/08/02 03:00:08;;;;;;;49.83;3.23;;;;;;;24.83;60.84;98219.81;7309126;19;129614;-39
2023/08/02 03:02:33;;;;;;;31.42;2.38;;;;;;;24.84;60.00;98225.91;7307120;19;130460;-35
2023/08/02 03:04:59;;;;;;;52.80;3.50;;;;;;;24.85;60.25;98232.78;7308003;19;129192;-38
2023/08/02 03:07:24;;;;;;;109.47;7.03;;;;;;;24.83;60.73;98225.09;7303747;19;130951;-40
2023/08/02 03:09:50;;;;;;;78.40;5.33;;;;;;;24.84;60.11;98225.91;7291265;19;130157;-42
2023/08/02 03:12:15;;;;;;;50.90;3.37;;;;;;;24.85;60.51;98224.88;7298925;19;130434;-32
2023/08/02 03:14:40;;;;;;;62.03;4.03;;;;;;;24.84;60.48;98225.91;7307630;19;129468;-37
2023/08/02 03:17:06;;;;;;;118.97;7.70;;;;;;;24.85;60.81;98219.63;7304492;19;129137;-39
2023/08/02 03:19:31;;;;;;;68.73;4.57;;;;;;;24.84;60.15;98213.56;7293696;19;129578;-41
2023/08/02 03:21:56;;;;;;;47.53;2.97;;;;;;;24.84;60.43;98220.66;7301686;19;129263;-35
2023/08/02 03:24:22;;;;;;;46.47;3.03;;;;;;;24.73;60.45;98208.84;7309904;19;129059;-33
2023/08/02 03:26:47;;;;;;;52.10;3.13;;;;;;;24.84;60.21;98228.53;7307000;19;130465;-35
2023/08/02 03:29:12;;;;;;;49.30;3.10;;;;;;;24.75;60.81;98216.53;7309766;19;129346;-39
2023/08/02 03:31:37;;;;;;;41.20;2.97;;;;;;;24.83;60.69;98224.25;7304040;19;128923;-34
2023/08/02 03:34:03;;;;;;;44.07;3.13;;;;;;;24.83;60.01;98229.53;7309523;19;129315;-37
2023/08/02 03:36:29;;;;;;;52.60;3.53;;;;;;;24.72;60.35;98212.50;7306841;19;130239;-37
2023/08/02 03:38:54;;;;;;;44.20;3.05;;;;;;;24.71;60.80;98210.06;7309669;19;129705;-35
2023/08/02 03:41:20;;;;;;;47.63;3.00;;;;;;;24.81;60.52;98219.19;7305214;19;128835;-34
2023/08/02 03:43:45;;;;;;;56.33;3.43;;;;;;;24.82;60.77;98222.66;7308950;19;129754;-35
2023/08/02 03:46:11;;;;;;;44.73;3.03;;;;;;;24.81;60.55;98226.28;7304336;19;129256;-39
2023/08/02 03:48:36;;;;;;;61.47;4.17;;;;;;;24.73;60.76;98215.91;7308907;19;129485;-31
2023/08/02 03:51:02;;;;;;;36.60;2.60;;;;;;;24.81;60.58;98221.81;7306145;19;129842;-37
2023/08/02 03:53:29;;;;;;;100.80;6.50;;;;;;;24.81;60.51;98231.56;7305368;19;129474;-33
2023/08/02 03:55:55;;;;;;;58.70;4.05;;;;;;;24.81;60.51;98231.56;7305651;19;130034;-37
2023/08/02 03:58:20;;;;;;;37.63;2.50;;;;;;;24.80;60.96;98224.66;7309225;19;130505;-37
2023/08/02 04:00:46;;;;;;;42.53;2.87;;;;;;;24.81;60.90;98232.34;7304820;19;129697;-35
2023/08/02 04:03:11;;;;;;;59.93;3.87;;;;;;;24.81;60.95;98231.56;7309284;19;129811;-41
2023/08/02 04:05:37;;;;;;;43.53;2.83;;;;;;;24.81;60.62;98232.34;7310093;19;130276;-42
2023/08/02 04:16:01;;;;;;;90.05;7.07;;;;;;;24.58;60.85;98225.72;7269110;19;130366;-69
2023/08/02 04:18:27;;;;;;;57.15;3.88;;;;;;;24.52;60.50;98231.72;7170650;19;3083843;-73
2023/08/02 04:20:52;;;;;;;104.67;8.27;;;;;;;24.47;60.76;98229.66;7341852;19;130792;-72
2023/08/02 04:23:17;;;;;;;66.03;5.20;;;;;;;24.42;61.31;98216.28;7341095;19;130418;-72
2023/08/02 04:25:43;;;;;;;62.40;5.10;;;;;;;24.53;60.73;98228.88;7338860;19;130130;-74
2023/08/02 04:28:08;;;;;;;72.37;5.90;;;;;;;24.56;61.02;98233.75;7328473;19;130122;-76
2023/08/02 04:30:33;;;;;;;50.33;4.37;;;;;;;24.60;60.62;98236.81;7331043;19;131387;-72
2023/08/02 04:32:59;;;;;;;63.03;4.53;;;;;;;24.53;60.80;98218.38;7323054;19;131994;-72
2023/08/02 04:35:24;;;;;;;46.03;3.23;;;;;;;24.66;60.55;98230.81;7335492;19;130313;-75
2023/08/02 04:37:49;;;;;;;41.53;3.10;;;;;;;24.59;61.07;98220.25;7338404;19;129956;-75
2023/08/02 04:40:15;;;;;;;19.17;1.77;;;;;;;24.70;60.64;98226.81;7343795;19;129067;-75
2023/08/02 04:42:41;;;;;;;41.30;2.87;;;;;;;24.73;61.13;98234.31;7340500;19;130295;-73
2023/08/02 04:45:07;;;;;;;46.93;3.50;;;;;;;24.73;60.29;98236.94;7342663;19;130878;-75
2023/08/02 04:47:32;;;;;;;35.92;2.67;;;;;;;24.75;60.31;98240.19;7340401;19;131526;-73
2023/08/02 04:49:58;;;;;;;21.53;1.73;;;;;;;24.65;60.51;98216.84;7337686;19;129815;-74
2023/08/02 04:52:23;;;;;;;48.40;3.70;;;;;;;24.76;60.67;98239.22;7342510;19;129510;-76
2023/08/02 04:54:48;;;;;;;58.27;3.83;;;;;;;24.75;60.64;98229.69;7341020;19;129032;-73
2023/08/02 04:57:14;;;;;;;66.80;4.97;;;;;;;24.76;60.19;98223.44;7336828;19;129001;-72
2023/08/02 04:59:39;;;;;;;84.60;6.17;;;;;;;24.77;61.01;98222.41;7333684;19;130549;-74
2023/08/02 05:02:05;;;;;;;71.97;4.83;;;;;;;24.76;60.22;98224.22;7337024;19;131412;-70
2023/08/02 05:04:30;;;;;;;59.90;4.03;;;;;;;24.77;60.10;98227.66;7334579;19;131831;-70
2023/08/02 05:06:55;;;;;;;24.13;1.77;;;;;;;24.66;60.24;98207.16;7341113;19;129678;-73
2023/08/02 05:09:21;;;;;;;62.10;4.93;;;;;;;24.78;60.78;98221.41;7344460;19;129308;-72
2023/08/02 05:11:46;;;;;;;16.03;1.67;;;;;;;24.77;60.38;98225.88;7337884;19;129772;-73
2023/08/02 05:14:12;;;;;;;122.37;8.30;;;;;;;24.78;60.86;98224.03;7329100;19;130265;-72
2023/08/02 05:16:37;;;;;;;78.50;5.83;;;;;;;24.79;60.65;98228.31;7325132;19;131083;-71
2023/08/02 05:19:03;;;;;;;28.27;2.30;;;;;;;24.78;60.50;98222.22;7334017;19;130293;-74
2023/08/02 05:21:29;;;;;;;38.40;2.67;;;;;;;24.74;60.60;98205.22;7341594;19;129254;-71
2023/08/02 05:23:55;;;;;;;67.72;4.63;;;;;;;24.81;60.38;98219.19;7345816;19;129085;-74
2023/08/02 05:26:20;;;;;;;31.33;2.30;;;;;;;24.85;60.25;98228.34;7325870;19;129810;-72
2023/08/02 05:28:46;;;;;;;29.93;2.20;;;;;;;24.87;60.42;98209.75;7316409;19;129609;-73
2023/08/02 05:31:13;;;;;;;70.00;5.07;;;;;;;24.80;60.36;98209.69;7310878;19;131556;-72
2023/08/02 05:33:39;;;;;;;26.85;2.13;;;;;;;24.91;60.35;98232.81;7317239;19;128912;-70
2023/08/02 05:36:05;;;;;;;30.65;2.42;;;;;;;24.94;60.39;98236.88;7307345;19;130786;-73
2023/08/02 05:38:33;;;;;;;29.40;2.27;;;;;;;24.85;60.54;98217.00;7316662;19;129795;-70
2023/08/02 05:41:04;;;;;;;27.75;2.20;;;;;;;24.98;60.20;98222.31;7312863;19;129569;-70
2023/08/02 05:43:30;;;;;;;33.95;2.40;;;;;;;24.95;60.20;98222.72;7316376;19;129003;-70
2023/08/02 05:45:57;;;;;;;7.17;1.00;;;;;;;24.98;60.68;98223.16;7314112;19;129339;-75
2023/08/02 05:48:23;;;;;;;29.63;2.17;;;;;;;24.96;60.05;98216.44;7316849;19;129872;-72
2023/08/02 05:50:48;;;;;;;102.23;6.93;;;;;;;24.98;60.16;98217.06;7315341;19;129678;-73
2023/08/02 05:53:13;;;;;;;37.33;2.53;;;;;;;24.99;60.38;98213.44;7316880;19;129067;-70
2023/08/02 05:58:13;;;;;;;23.25;1.90;;;;;;;25.03;60.43;98191.00;7313624;19;129921;-42
2023/08/02 06:00:39;;;;;;;31.87;2.50;;;;;;;25.01;60.05;98193.00;7314059;19;129862;-42
2023/08/02 06:03:04;;;;;;;45.13;3.07;;;;;;;25.00;60.15;98194.84;7316150;19;129009;-40
2023/08/02 06:05:29;;;;;;;28.40;2.13;;;;;;;25.00;59.72;98194.03;7309649;19;129249;-42
2023/08/02 06:07:55;;;;;;;31.03;2.37;;;;;;;24.99;60.24;98206.34;7315504;19;129029;-40
2023/08/02 06:10:20;;;;;;;31.60;2.30;;;;;;;24.92;60.39;98181.03;7313368;19;129528;-42
2023/08/02 06:12:46;;;;;;;35.93;2.57;;;;;;;24.99;60.41;98190.56;7314062;19;129458;-41
2023/08/02 06:15:12;;;;;;;24.10;1.97;;;;;;;24.98;60.00;98190.78;7314035;19;130000;-41
2023/08/02 06:17:37;;;;;;;28.33;2.33;;;;;;;24.98;59.60;98191.59;7315062;19;128946;-40
2023/08/02 06:20:03;;;;;;;20.30;1.77;;;;;;;24.99;59.96;98197.66;7313039;19;129184;-41
2023/08/02 06:22:29;;;;;;;34.90;2.50;;;;;;;24.99;60.09;98202.94;7316255;19;129139;-42
2023/08/02 06:24:54;;;;;;;84.30;5.60;;;;;;;24.99;60.36;98202.94;7311757;19;129892;-41
2023/08/02 06:27:19;;;;;;;22.07;1.77;;;;;;;25.00;60.07;98209.81;7313546;19;129129;-40
2023/08/02 06:29:45;;;;;;;34.43;2.50;;;;;;;25.00;59.71;98207.19;7312682;19;131045;-43
2023/08/02 06:32:10;;;;;;;30.57;2.17;;;;;;;24.93;59.90;98182.66;7312546;19;129610;-42
2023/08/02 06:34:35;;;;;;;32.90;2.40;;;;;;;25.01;59.78;98195.63;7314174;19;129915;-41
2023/08/02 06:37:01;;;;;;;24.43;1.90;;;;;;;25.01;60.24;98201.72;7310902;19;129083;-41
2023/08/02 06:39:26;;;;;;;57.67;3.97;;;;;;;25.02;60.06;98213.06;7312813;19;129254;-42
2023/08/02 06:41:51;;;;;;;20.20;1.83;;;;;;;25.03;60.19;98201.53;7312495;19;128993;-41
2023/08/02 06:44:18;;;;;;;19.63;1.53;;;;;;;25.03;59.97;98201.53;7313685;19;129312;-42
2023/08/02 06:46:43;;;;;;;24.63;1.90;;;;;;;25.05;60.15;98202.13;7309179;19;129472;-42
2023/08/02 06:49:09;;;;;;;21.80;1.77;;;;;;;25.05;59.90;98204.78;7314071;19;129114;-41
2023/08/02 06:51:34;;;;;;;30.67;2.37;;;;;;;25.06;60.03;98201.13;7307638;19;129023;-41
2023/08/02 06:53:59;;;;;;;44.17;3.47;;;;;;;25.06;59.65;98198.50;7314303;19;129573;-42
2023/08/02 06:56:25;;;;;;;26.73;2.10;;;;;;;25.07;60.29;98195.66;7308741;19;129839;-39
2023/08/02 06:58:50;;;;;;;29.80;2.10;;;;;;;25.07;60.10;98185.16;7314988;19;129553;-42
2023/08/02 07:01:21;;;;;;;26.83;1.83;;;;;;;25.07;60.03;98184.34;7311830;19;129273;-41
2023/08/02 07:03:47;;;;;;;39.75;2.75;;;;;;;25.03;59.38;98180.47;7312883;19;129028;-41
2023/08/02 07:06:14;;;;;;;32.03;2.27;;;;;;;25.04;59.57;98179.50;7310254;19;130503;-42
2023/08/02 07:08:41;;;;;;;89.50;6.53;;;;;;;25.05;60.07;98186.38;7296828;19;130207;-44
2023/08/02 07:11:07;;;;;;;87.07;6.55;;;;;;;25.06;60.05;98182.72;7295551;19;132075;-41
2023/08/02 07:13:33;;;;;;;76.22;5.63;;;;;;;25.07;59.76;98179.09;7296284;19;130864;-41
2023/08/02 07:15:59;;;;;;;88.97;6.32;;;;;;;25.05;60.23;98175.84;7292497;19;131296;-40
2023/08/02 07:18:25;;;;;;;80.97;5.80;;;;;;;25.03;59.78;98165.53;7298726;19;132051;-40
2023/08/02 07:20:51;;;;;;;55.72;3.97;;;;;;;25.04;60.01;98163.72;7296979;19;131346;-41
2023/08/02 07:23:16;;;;;;;70.20;5.37;;;;;;;25.04;59.63;98163.72;7294835;19;130312;-39
2023/08/02 07:25:41;;;;;;;66.23;4.87;;;;;;;24.96;59.65;98145.44;7291878;19;130429;-41
2023/08/02 07:28:07;;;;;;;77.97;5.77;;;;;;;25.06;59.56;98156.41;7296088;19;130798;-38
2023/08/02 07:30:32;;;;;;;85.70;6.40;;;;;;;25.06;59.58;98153.78;7293419;19;131178;-38
2023/08/02 07:32:58;;;;;;;79.27;6.10;;;;;;;25.04;59.72;98153.19;7296288;19;130820;-40
2023/08/02 07:35:23;;;;;;;89.47;6.47;;;;;;;25.05;60.08;98149.53;7291124;19;131004;-41
2023/08/02 07:37:48;;;;;;;38.20;2.67;;;;;;;25.04;60.05;98151.34;7305714;19;130882;-40
2023/08/02 07:40:14;;;;;;;54.60;3.87;;;;;;;25.04;59.71;98147.94;7311863;19;129580;-40
2023/08/02 07:42:40;;;;;;;20.27;1.63;;;;;;;25.03;60.24;98156.81;7307436;19;130309;-39
2023/08/02 07:45:09;;;;;;;35.43;2.50;;;;;;;25.03;60.63;98146.28;7311853;19;129537;-40
2023/08/02 07:47:36;;;;;;;12.88;1.23;;;;;;;25.01;60.39;98143.03;7310256;19;129249;-41
2023/08/02 07:50:03;;;;;;;25.50;1.90;;;;;;;25.01;59.65;98137.78;7312685;19;130704;-41
2023/08/02 07:52:28;;;;;;;30.23;2.40;;;;;;;25.02;60.33;98128.91;7309897;19;129969;-41
2023/08/02 07:54:54;;;;;;;41.37;2.70;;;;;;;25.02;59.79;98121.03;7311254;19;129007;-41
2023/08/02 07:57:25;;;;;;;7.77;0.90;;;;;;;25.01;60.35;98122.00;7310836;19;131258;-40
2023/08/02 07:59:50;;;;;;;26.80;2.00;;;;;;;25.01;59.99;98127.25;7313246;19;129254;-42
2023/08/02 08:02:16;;;;;;;25.13;1.70;;;;;;;25.01;59.74;98127.25;7310109;19;129849;-41
2023/08/02 08:04:42;;;;;;;37.60;2.47;;;;;;;25.01;60.13;98132.53;7311277;19;128966;-40
2023/08/02 08:07:07;;;;;;;52.37;3.93;;;;;;;25.00;59.53;98123.84;7310423;19;129614;-37
2023/08/02 08:09:33;;;;;;;40.23;2.83;;;;;;;24.98;59.94;98119.78;7312963;19;129024;-41
2023/08/02 08:12:04;;;;;;;30.48;2.05;;;;;;;25.00;60.22;98115.97;7309592;19;129332;-41
2023/08/02 08:14:30;;;;;;;65.35;3.90;;;;;;;25.00;60.04;98113.34;7310948;19;130939;-40
2023/08/02 08:16:56;;;;;;;27.73;2.05;;;;;;;24.97;60.38;98111.09;7309443;19;131611;-41
2023/08/02 08:19:22;;;;;;;26.08;2.00;;;;;;;24.99;60.05;98119.56;7311858;19;129009;-39
2023/08/02 08:21:47;;;;;;;23.83;1.73;;;;;;;25.00;60.00;98123.03;7310544;19;129859;-41
2023/08/02 08:24:12;;;;;;;32.30;2.37;;;;;;;24.91;59.58;98113.69;7305468;19;129043;-41
2023/08/02 08:26:38;;;;;;;10.60;1.13;;;;;;;24.99;60.00;98127.47;7307688;19;129641;-41
2023/08/02 08:29:04;;;;;;;31.77;2.13;;;;;;;24.88;60.00;98106.19;7310846;19;129279;-41
2023/08/02 08:31:29;;;;;;;27.80;2.07;;;;;;;25.00;59.51;98133.53;7308491;19;129894;-41
2023/08/02 08:33:55;;;;;;;72.47;5.20;;;;;;;25.00;59.99;98125.66;7310966;19;128971;-41
2023/08/02 08:36:21;;;;;;;31.43;2.33;;;;;;;24.99;60.00;98124.84;7306578;19;131382;-41
2023/08/02 08:38:46;;;;;;;24.38;1.73;;;;;;;24.97;59.65;98128.69;7311356;19;129195;-37
2023/08/02 08:41:14;;;;;;;50.40;4.03;;;;;;;24.99;59.69;98124.03;7308307;19;130005;-41
2023/08/02 08:43:40;;;;;;;46.05;3.10;;;;;;;24.96;60.06;98124.41;7312283;19;129235;-40
2023/08/02 08:46:06;;;;;;;44.33;3.43;;;;;;;25.00;60.27;98115.13;7307679;19;129652;-42
2023/08/02 08:48:33;;;;;;;28.92;2.10;;;;;;;24.95;59.70;98101.78;7311291;19;129314;-42
2023/08/02 08:51:01;;;;;;;23.15;1.75;;;;;;;24.99;60.32;98113.53;7309509;19;129302;-39
2023/08/02 08:53:36;;;;;;;57.83;3.90;;;;;;;25.01;60.41;98106.22;7310956;19;129320;-41
2023/08/02 08:56:05;;;;;;;29.52;2.13;;;;;;;25.00;60.25;98107.25;7305948;19;129795;-40
2023/08/02 08:58:35;;;;;;;27.80;1.90;;;;;;;24.99;60.28;98103.81;7309737;19;129293;-41
2023/08/02 09:01:03;;;;;;;10.32;1.27;;;;;;;24.98;60.60;98088.22;7309501;19;129196;-42
2023/08/02 09:03:29;;;;;;;78.57;5.80;;;;;;;24.98;60.30;98081.16;7310992;19;130388;-38
2023/08/02 09:05:59;;;;;;;101.67;7.47;;;;;;;25.00;60.19;98083.59;7296735;19;130175;-39
2023/08/02 09:08:24;;;;;;;66.13;4.53;;;;;;;24.90;60.00;98068.19;7302281;19;129895;-38
2023/08/02 09:10:49;;;;;;;29.40;2.23;;;;;;;24.99;60.12;98079.34;7315674;19;129332;-38
2023/08/02 09:13:21;;;;;;;10.17;0.90;;;;;;;25.00;60.02;98070.44;7315964;19;131555;-41
2023/08/02 09:16:05;;;;;;;42.80;2.92;;;;;;;25.02;60.04;98064.00;7311293;19;129246;-39
2023/08/02 09:18:44;;;;;;;43.55;3.35;;;;;;;25.02;60.73;98073.69;7316062;19;129017;-40
2023/08/02 09:21:13;;;;;;;44.78;3.03;;;;;;;24.98;60.08;98070.63;7316759;19;129329;-41
2023/08/02 09:23:38;;;;;;;34.75;2.50;;;;;;;24.98;60.36;98075.06;7317286;19;129945;-41
2023/08/02 09:26:17;;;;;;;30.57;2.37;;;;;;;25.00;60.40;98078.31;7313200;19;129106;-41
2023/08/02 09:29:03;;;;;;;44.90;3.25;;;;;;;25.00;60.53;98073.06;7316570;19;128854;-40
2023/08/02 09:31:31;;;;;;;24.52;1.92;;;;;;;24.84;60.39;98045.31;7314031;19;129519;-41
2023/08/02 09:33:56;;;;;;;71.30;4.82;;;;;;;24.96;60.10;98066.56;7314754;19;129179;-41
2023/08/02 09:36:26;;;;;;;30.40;2.17;;;;;;;24.96;60.13;98058.69;7312235;19;129912;-41
2023/08/02 09:39:09;;;;;;;24.38;1.85;;;;;;;24.96;60.35;98056.88;7316873;19;129169;-41
2023/08/02 09:41:35;;;;;;;25.67;1.95;;;;;;;24.94;59.53;98052.84;7313330;19;131303;-41
2023/08/02 09:44:00;;;;;;;43.73;3.17;;;;;;;24.96;59.71;98050.78;7315619;19;129901;-41
2023/08/02 09:46:33;;;;;;;40.67;2.67;;;;;;;24.94;60.21;98037.06;7310530;19;129205;-41
2023/08/02 09:48:59;;;;;;;66.95;4.90;;;;;;;24.95;60.03;98049.19;7311959;19;129244;-39
2023/08/02 09:51:45;;;;;;;24.88;1.95;;;;;;;24.97;60.88;98039.28;7314969;19;129915;-39
2023/08/02 09:54:12;;;;;;;30.83;2.35;;;;;;;24.94;59.82;98037.06;7312434;19;130021;-40
2023/08/02 09:56:39;;;;;;;32.90;2.50;;;;;;;24.92;60.17;98029.38;7311019;19;130194;-42
2023/08/02 09:59:06;;;;;;;33.33;2.33;;;;;;;24.93;60.17;98019.66;7314522;19;132220;-39
2023/08/02 10:01:33;;;;;;;41.60;2.92;;;;;;;24.92;60.34;98018.03;7313914;19;131150;-39
2023/08/02 10:04:02;;;;;;;78.82;5.75;;;;;;;24.93;60.48;98011.75;7312502;19;129422;-41
2023/08/02 10:06:42;;;;;;;25.33;1.98;;;;;;;24.93;60.17;98003.88;7311257;19;129201;-40
2023/08/02 10:09:08;;;;;;;36.95;2.45;;;;;;;24.92;60.23;97997.81;7315255;19;129448;-39
2023/08/02 10:11:56;;;;;;;39.65;2.70;;;;;;;24.95;60.55;97999.22;7313444;19;130636;-39
2023/08/02 10:14:21;;;;;;;47.08;3.13;;;;;;;24.94;60.26;98006.28;7312583;19;129343;-41
2023/08/02 10:16:47;;;;;;;29.27;2.10;;;;;;;24.92;60.22;98005.72;7310990;19;129220;-39
2023/08/02 10:19:13;;;;;;;30.63;2.27;;;;;;;24.95;59.76;98012.38;7314192;19;129602;-41
2023/08/02 10:21:42;;;;;;;35.77;2.63;;;;;;;24.94;60.38;98002.88;7312919;19;129219;-41
2023/08/02 10:24:09;;;;;;;54.00;3.80;;;;;;;24.92;60.15;98007.53;7312006;19;129007;-42
2023/08/02 10:26:35;;;;;;;32.47;2.35;;;;;;;24.94;60.50;98000.25;7309416;19;129384;-39
2023/08/02 10:29:02;;;;;;;27.03;2.00;;;;;;;24.93;60.14;97994.16;7315284;19;129173;-40
2023/08/02 10:31:27;;;;;;;26.02;1.88;;;;;;;24.93;60.12;97985.47;7311707;19;129935;-41
2023/08/02 10:33:53;;;;;;;92.33;6.53;;;;;;;24.93;59.73;97977.56;7312498;19;129940;-40
2023/08/02 10:36:18;;;;;;;32.50;2.37;;;;;;;24.93;60.32;97977.56;7311101;19;129131;-41
2023/08/02 10:38:43;;;;;;;28.50;2.27;;;;;;;24.94;59.79;97976.59;7313568;19;129153;-41
2023/08/02 10:41:10;;;;;;;52.87;3.60;;;;;;;24.93;60.23;97969.69;7313458;19;129533;-39
2023/08/02 10:43:51;;;;;;;42.22;2.95;;;;;;;24.95;60.92;97959.78;7313209;19;129104;-41
2023/08/02 10:46:17;;;;;;;39.03;2.67;;;;;;;24.92;60.36;97965.47;7311078;19;129203;-40
2023/08/02 10:48:42;;;;;;;78.15;5.70;;;;;;;24.92;60.40;97953.13;7308914;19;129397;-37
2023/08/02 10:51:26;;;;;;;36.10;2.53;;;;;;;24.96;60.29;97956.13;7312881;19;129888;-41
2023/08/02 10:54:16;;;;;;;73.78;5.57;;;;;;;24.94;60.16;97966.84;7311347;19;129498;-41
2023/08/02 10:56:53;;;;;;;33.08;2.33;;;;;;;24.84;60.86;97942.00;7310013;19;129354;-40
2023/08/02 10:59:25;;;;;;;54.42;3.92;;;;;;;24.94;60.40;97952.94;7313525;19;128912;-42
2023/08/02 11:02:01;;;;;;;37.38;2.55;;;;;;;24.95;60.47;97946.66;7312698;19;129902;-41
2023/08/02 11:04:28;;;;;;;86.93;6.05;;;;;;;24.92;59.80;97944.41;7308479;19;129646;-40
2023/08/02 11:06:54;;;;;;;76.28;5.65;;;;;;;24.91;59.82;97935.72;7295666;19;130316;-39
2023/08/02 11:09:30;;;;;;;26.57;1.90;;;;;;;24.94;60.37;97934.53;7310785;19;129518;-40
2023/08/02 11:11:55;;;;;;;11.48;0.88;;;;;;;24.91;60.39;97937.53;7311927;19;128808;-40
2023/08/02 11:14:27;;;;;;;42.80;3.07;;;;;;;24.83;60.24;97920.13;7312126;19;129914;-40
2023/08/02 11:16:53;;;;;;;44.17;3.05;;;;;;;24.89;59.89;97918.53;7306578;19;129317;-42
2023/08/02 11:19:21;;;;;;;20.40;1.53;;;;;;;24.92;60.62;97924.22;7311595;19;129149;-40
2023/08/02 11:21:57;;;;;;;30.27;2.13;;;;;;;24.94;61.05;97913.50;7310651;19;129629;-41
2023/08/02 11:24:23;;;;;;;38.67;2.47;;;;;;;24.92;60.15;97903.19;7310352;19;129458;-38
2023/08/02 11:26:55;;;;;;;45.70;2.92;;;;;;;24.93;60.51;97907.41;7308184;19;129209;-41